Time;durP1;ratioP1;P1;durP2;ratioP2;P2;SDS_P1;SDS_P2;PMS_P1;PMS_P2;Temp;Humidity;BMP_temperature;BMP_pressure;BME280_temperature;BME280_humidity;BME280_pressure;Samples;Min_cycle;Max_cycle;Signal;HPM_P1;HPM_P2
2021/07/05 00:01:19;;;;;;;1.30;1.20;;;19.00;99.90;;;;;;4917586;29;20250;-63
2021/07/05 00:03:45;;;;;;;4.90;1.40;;;19.00;99.90;;;;;;4916139;29;20877;-63
2021/07/05 00:06:11;;;;;;;1.50;1.20;;;19.20;99.90;;;;;;4917332;29;20629;-62
2021/07/05 00:08:37;;;;;;;3.93;1.20;;;19.00;99.90;;;;;;4917394;29;20407;-63
2021/07/05 00:11:03;;;;;;;1.50;1.10;;;18.90;99.90;;;;;;4917315;29;20498;-63
2021/07/05 00:13:29;;;;;;;1.00;0.90;;;19.00;99.90;;;;;;4916043;29;20262;-63
2021/07/05 00:15:55;;;;;;;1.77;1.00;;;19.00;99.90;;;;;;4917215;29;20407;-62
2021/07/05 00:18:21;;;;;;;1.63;1.17;;;18.90;99.90;;;;;;4917182;29;20830;-63
2021/07/05 00:20:47;;;;;;;1.23;1.13;;;19.00;99.90;;;;;;4917155;29;20202;-63
2021/07/05 00:23:13;;;;;;;1.10;1.00;;;19.10;99.90;;;;;;4905975;29;20416;-62
2021/07/05 00:25:39;;;;;;;3.13;1.40;;;19.30;99.90;;;;;;4898404;29;20211;-63
2021/07/05 00:28:06;;;;;;;1.20;0.90;;;19.30;99.90;;;;;;4897813;29;20412;-62
2021/07/05 00:30:32;;;;;;;1.73;1.10;;;19.40;99.90;;;;;;4897280;29;20892;-62
2021/07/05 00:32:59;;;;;;;3.03;1.00;;;19.40;99.90;;;;;;4898166;29;20459;-63
2021/07/05 00:35:25;;;;;;;1.23;1.13;;;19.40;99.90;;;;;;4897968;29;20441;-63
2021/07/05 00:37:51;;;;;;;1.13;1.03;;;19.40;99.90;;;;;;4902036;29;20467;-63
2021/07/05 00:40:18;;;;;;;1.50;1.10;;;19.40;99.90;;;;;;4917270;29;20826;-68
2021/07/05 00:42:45;;;;;;;1.77;1.30;;;19.40;99.90;;;;;;4917370;29;20408;-63
2021/07/05 00:45:11;;;;;;;4.30;1.43;;;19.40;99.90;;;;;;4917451;29;20804;-63
2021/07/05 00:47:37;;;;;;;2.63;1.27;;;19.30;99.90;;;;;;4917270;29;20423;-62
2021/07/05 00:50:05;;;;;;;1.30;1.20;;;19.30;99.90;;;;;;4917177;29;20439;-63
2021/07/05 00:52:31;;;;;;;1.37;1.27;;;19.50;99.90;;;;;;4916784;29;20412;-63
2021/07/05 00:54:57;;;;;;;2.10;1.27;;;19.50;99.90;;;;;;4916920;29;20423;-62
2021/07/05 00:57:27;;;;;;;3.57;1.00;;;19.50;99.90;;;;;;4915027;29;20203;-63
2021/07/05 00:59:55;;;;;;;1.03;0.93;;;19.50;99.90;;;;;;4913182;29;20882;-63
2021/07/05 01:02:22;;;;;;;2.23;1.20;;;19.50;99.90;;;;;;4917860;29;20411;-63
2021/07/05 01:04:50;;;;;;;1.10;0.93;;;19.50;99.90;;;;;;4917197;29;20418;-63
2021/07/05 01:07:16;;;;;;;1.03;0.93;;;19.60;99.90;;;;;;4917324;29;20411;-62
2021/07/05 01:09:42;;;;;;;1.17;1.07;;;19.50;99.90;;;;;;4916509;29;20446;-63
2021/07/05 01:12:09;;;;;;;1.93;1.30;;;19.20;99.90;;;;;;4972527;23;20512;-67
2021/07/05 01:14:35;;;;;;;1.50;1.30;;;19.30;99.90;;;;;;4953165;29;20422;-67
2021/07/05 01:17:02;;;;;;;3.73;1.20;;;19.10;99.90;;;;;;4954873;29;20462;-67
2021/07/05 01:19:28;;;;;;;2.10;0.90;;;19.10;99.90;;;;;;4954918;29;20173;-67
2021/07/05 01:21:54;;;;;;;1.30;1.20;;;19.00;99.90;;;;;;4954545;28;20421;-66
2021/07/05 01:24:21;;;;;;;1.53;1.20;;;19.20;99.90;;;;;;4954843;29;20575;-66
2021/07/05 01:26:46;;;;;;;1.13;1.00;;;19.20;99.90;;;;;;4954854;29;20406;-67
2021/07/05 01:29:12;;;;;;;1.87;1.40;;;19.30;99.90;;;;;;4954307;29;20413;-67
2021/07/05 01:31:38;;;;;;;1.60;1.20;;;19.20;99.90;;;;;;4954419;28;20730;-68
2021/07/05 01:34:04;;;;;;;1.07;0.93;;;19.20;99.90;;;;;;4952987;29;20170;-67
2021/07/05 01:36:31;;;;;;;1.20;0.97;;;19.30;99.90;;;;;;4954468;29;20241;-67
2021/07/05 01:38:57;;;;;;;1.30;1.20;;;19.40;99.90;;;;;;4954604;29;20532;-67
2021/07/05 01:41:23;;;;;;;1.33;1.03;;;19.30;99.90;;;;;;4954612;28;20433;-68
2021/07/05 01:43:49;;;;;;;1.30;1.20;;;19.40;99.90;;;;;;4956144;28;20460;-67
2021/07/05 01:46:17;;;;;;;1.80;1.03;;;19.40;99.90;;;;;;4957535;29;20409;-67
2021/07/05 01:48:45;;;;;;;2.27;1.33;;;19.40;99.90;;;;;;4957773;29;20909;-67
2021/07/05 01:51:11;;;;;;;1.50;1.17;;;19.40;99.90;;;;;;4956229;28;20820;-67
2021/07/05 01:53:37;;;;;;;1.87;1.00;;;19.30;99.90;;;;;;4957654;29;20414;-68
2021/07/05 01:56:02;;;;;;;2.03;1.30;;;19.40;99.90;;;;;;4958056;29;20182;-68
2021/07/05 01:58:28;;;;;;;1.73;1.20;;;19.30;99.90;;;;;;4957753;29;20190;-68
2021/07/05 02:00:55;;;;;;;2.60;1.37;;;19.40;99.90;;;;;;4957349;28;20208;-68
2021/07/05 02:03:21;;;;;;;2.03;1.30;;;19.30;99.90;;;;;;4957575;29;20174;-68
2021/07/05 02:05:47;;;;;;;1.90;1.30;;;19.30;99.90;;;;;;4957335;29;20447;-68
2021/07/05 02:08:15;;;;;;;2.97;1.07;;;19.20;99.90;;;;;;4957689;29;20174;-67
2021/07/05 02:10:43;;;;;;;2.30;1.30;;;19.10;99.90;;;;;;4957221;28;20445;-67
2021/07/05 02:13:15;;;;;;;1.00;0.90;;;19.10;99.90;;;;;;4957477;29;20465;-67
2021/07/05 02:15:41;;;;;;;1.97;1.20;;;19.10;99.90;;;;;;4955781;29;20428;-67
2021/07/05 02:18:07;;;;;;;3.33;1.20;;;19.10;99.90;;;;;;4957160;28;20445;-67
2021/07/05 02:20:33;;;;;;;1.50;1.40;;;19.00;99.90;;;;;;4957145;28;20426;-67
2021/07/05 02:23:00;;;;;;;3.43;1.23;;;19.10;99.90;;;;;;4955735;29;20481;-67
2021/07/05 02:25:29;;;;;;;3.17;1.33;;;19.10;99.90;;;;;;4957391;28;20402;-67
2021/07/05 02:28:03;;;;;;;1.50;1.10;;;18.80;99.90;;;;;;4957196;29;20401;-68
2021/07/05 02:30:29;;;;;;;1.70;1.10;;;18.70;99.90;;;;;;4938188;29;21058;-67
2021/07/05 02:32:56;;;;;;;1.40;1.00;;;18.80;99.90;;;;;;4940808;29;20457;-67
2021/07/05 02:35:24;;;;;;;1.20;1.10;;;18.60;99.90;;;;;;4956993;29;20414;-67
2021/07/05 02:37:50;;;;;;;1.67;1.37;;;18.70;99.90;;;;;;4938041;29;20521;-66
2021/07/05 02:40:20;;;;;;;1.30;1.00;;;18.60;99.90;;;;;;4932401;29;20784;-66
2021/07/05 02:42:46;;;;;;;1.90;1.40;;;18.50;99.90;;;;;;4948895;29;20792;-67
2021/07/05 02:45:17;;;;;;;2.30;1.20;;;18.50;99.90;;;;;;4957350;29;20405;-68
2021/07/05 02:47:43;;;;;;;1.30;1.00;;;18.70;99.90;;;;;;4957062;29;20478;-67
2021/07/05 02:50:10;;;;;;;1.40;1.30;;;18.80;99.90;;;;;;4956697;28;20397;-67
2021/07/05 02:52:36;;;;;;;1.50;1.40;;;18.90;99.90;;;;;;4956355;29;21042;-67
2021/07/05 02:55:03;;;;;;;1.30;1.17;;;18.90;99.90;;;;;;4956155;28;20410;-67
2021/07/05 02:57:29;;;;;;;1.23;1.13;;;19.10;99.90;;;;;;4956552;29;20449;-67
2021/07/05 03:00:06;;;;;;;2.57;1.37;;;19.10;99.90;;;;;;4956619;29;20417;-67
2021/07/05 03:02:32;;;;;;;1.30;1.10;;;19.00;99.90;;;;;;4956583;29;20398;-67
2021/07/05 03:04:58;;;;;;;1.70;1.33;;;18.90;99.90;;;;;;4957629;29;20437;-67
2021/07/05 03:07:24;;;;;;;1.30;1.20;;;19.00;99.90;;;;;;4956236;29;20410;-67
2021/07/05 03:09:50;;;;;;;1.30;1.20;;;19.10;99.90;;;;;;4956374;29;20417;-67
2021/07/05 03:12:15;;;;;;;1.53;1.20;;;19.10;99.90;;;;;;4955940;28;20209;-67
2021/07/05 03:14:41;;;;;;;2.30;1.50;;;19.10;99.90;;;;;;4956938;29;20174;-67
2021/07/05 03:17:07;;;;;;;4.13;1.33;;;19.20;99.90;;;;;;4956221;29;20670;-67
2021/07/05 03:19:32;;;;;;;1.47;1.37;;;19.20;99.90;;;;;;4956607;29;20181;-67
2021/07/05 03:21:58;;;;;;;1.07;0.97;;;19.20;99.90;;;;;;4955844;28;20182;-67
2021/07/05 03:24:23;;;;;;;4.00;1.37;;;19.10;99.90;;;;;;4956421;29;20202;-67
2021/07/05 03:26:49;;;;;;;2.30;1.13;;;19.20;99.90;;;;;;4956040;29;20162;-68
2021/07/05 03:29:14;;;;;;;2.40;1.07;;;19.20;99.90;;;;;;4956012;29;20170;-68
2021/07/05 03:31:40;;;;;;;1.30;1.20;;;19.10;99.90;;;;;;4956097;28;20708;-68
2021/07/05 03:34:06;;;;;;;3.77;1.23;;;19.10;99.90;;;;;;4956121;29;20514;-68
2021/07/05 03:36:32;;;;;;;1.60;1.30;;;19.10;99.90;;;;;;4954389;29;20174;-68
2021/07/05 03:38:57;;;;;;;1.60;1.50;;;19.20;99.90;;;;;;4955751;29;20193;-68
2021/07/05 03:41:23;;;;;;;1.80;1.37;;;19.20;99.90;;;;;;4955435;28;20518;-68
2021/07/05 03:43:48;;;;;;;3.37;1.70;;;19.20;99.90;;;;;;4955751;29;20178;-67
2021/07/05 03:46:14;;;;;;;1.50;1.30;;;19.20;99.90;;;;;;4955969;29;20170;-67
2021/07/05 03:48:40;;;;;;;1.90;1.60;;;19.30;99.90;;;;;;4955902;29;20541;-67
2021/07/05 03:51:07;;;;;;;1.30;1.10;;;19.30;99.90;;;;;;4955818;28;20333;-67
2021/07/05 03:53:32;;;;;;;2.13;1.33;;;19.30;99.90;;;;;;4955316;29;20175;-66
2021/07/05 03:55:58;;;;;;;2.10;1.60;;;19.20;99.90;;;;;;4954229;29;20503;-66
2021/07/05 03:58:24;;;;;;;2.30;1.40;;;19.20;99.90;;;;;;4955194;29;20194;-66
2021/07/05 04:00:50;;;;;;;2.07;1.13;;;19.20;99.90;;;;;;4955638;28;20277;-66
2021/07/05 04:03:16;;;;;;;2.73;1.23;;;19.20;99.90;;;;;;4955413;29;20531;-67
2021/07/05 04:05:42;;;;;;;1.73;1.60;;;19.20;99.90;;;;;;4956018;29;20639;-67
2021/07/05 04:08:08;;;;;;;1.77;1.40;;;19.00;99.90;;;;;;4955043;28;20468;-67
2021/07/05 04:10:34;;;;;;;1.70;1.60;;;19.00;99.90;;;;;;4955383;28;20469;-67
2021/07/05 04:13:05;;;;;;;1.37;1.27;;;18.90;99.90;;;;;;4954149;28;20178;-67
2021/07/05 04:15:30;;;;;;;2.00;1.73;;;18.90;99.90;;;;;;4956353;29;20485;-67
2021/07/05 04:17:56;;;;;;;1.83;1.50;;;18.90;99.90;;;;;;4955216;29;20536;-67
2021/07/05 04:20:23;;;;;;;1.63;1.10;;;19.00;99.90;;;;;;4955140;28;20168;-67
2021/07/05 04:22:50;;;;;;;1.40;1.20;;;19.20;99.90;;;;;;4955226;29;20181;-67
2021/07/05 04:25:17;;;;;;;2.10;1.77;;;19.10;99.90;;;;;;4955152;29;21005;-66
2021/07/05 04:27:44;;;;;;;2.00;1.40;;;19.20;99.90;;;;;;4955102;29;20505;-67
2021/07/05 04:30:11;;;;;;;2.93;1.67;;;19.30;99.90;;;;;;4954980;28;20492;-67
2021/07/05 04:32:37;;;;;;;2.93;1.37;;;19.30;99.90;;;;;;4955336;29;20410;-67
2021/07/05 04:35:05;;;;;;;2.37;1.70;;;19.40;99.90;;;;;;4945413;29;20923;-67
2021/07/05 04:37:31;;;;;;;1.97;1.40;;;19.20;99.90;;;;;;4935565;29;20493;-67
2021/07/05 04:39:57;;;;;;;2.43;1.67;;;19.20;99.90;;;;;;4936112;29;20932;-66
2021/07/05 04:42:22;;;;;;;2.07;1.53;;;19.10;99.90;;;;;;4935625;29;20187;-67
2021/07/05 04:44:50;;;;;;;1.80;1.23;;;19.00;99.90;;;;;;4950510;29;20178;-66
2021/07/05 04:47:16;;;;;;;3.20;1.30;;;19.00;99.90;;;;;;4955051;29;20170;-68
2021/07/05 04:49:41;;;;;;;1.20;1.10;;;19.10;99.90;;;;;;4955184;29;20480;-67
2021/07/05 04:52:07;;;;;;;2.10;1.40;;;19.10;99.90;;;;;;4954459;28;20662;-67
2021/07/05 04:54:33;;;;;;;1.70;1.43;;;19.00;99.90;;;;;;4954310;29;20269;-67
2021/07/05 04:56:58;;;;;;;2.10;1.40;;;19.20;99.90;;;;;;4954521;29;20297;-67
2021/07/05 04:59:25;;;;;;;1.37;1.27;;;19.20;99.90;;;;;;4955740;29;20712;-67
2021/07/05 05:01:51;;;;;;;1.37;1.27;;;19.10;99.90;;;;;;4954801;28;20199;-66
2021/07/05 05:04:16;;;;;;;1.50;1.30;;;19.10;99.90;;;;;;4954814;29;20910;-67
2021/07/05 05:06:43;;;;;;;3.00;1.20;;;19.20;99.90;;;;;;4955194;29;20611;-67
2021/07/05 05:09:09;;;;;;;1.37;1.27;;;19.30;99.90;;;;;;4954688;29;20639;-68
2021/07/05 05:11:34;;;;;;;1.50;1.33;;;19.40;99.90;;;;;;4954525;28;20477;-67
2021/07/05 05:14:00;;;;;;;2.20;1.30;;;19.40;99.90;;;;;;4954294;29;20924;-67
2021/07/05 05:16:25;;;;;;;1.60;1.37;;;19.50;99.90;;;;;;4955140;29;20197;-67
2021/07/05 05:18:51;;;;;;;1.77;1.23;;;19.60;99.90;;;;;;4956214;28;20259;-67
2021/07/05 05:21:17;;;;;;;2.23;1.50;;;19.50;99.90;;;;;;4958292;28;20238;-68
2021/07/05 05:23:42;;;;;;;1.67;1.33;;;19.60;99.90;;;;;;4958232;29;20229;-67
2021/07/05 05:26:08;;;;;;;1.40;1.30;;;19.70;99.90;;;;;;4958251;29;20245;-67
2021/07/05 05:28:34;;;;;;;2.90;1.40;;;19.90;99.90;;;;;;4957988;29;20221;-67
2021/07/05 05:31:00;;;;;;;1.43;1.33;;;20.00;99.90;;;;;;4935561;29;20206;-67
2021/07/05 05:33:25;;;;;;;1.60;1.50;;;20.00;99.90;;;;;;4936500;29;20182;-67
2021/07/05 05:35:51;;;;;;;2.70;1.37;;;20.10;99.90;;;;;;4939022;29;20414;-66
2021/07/05 05:38:17;;;;;;;2.53;1.50;;;20.20;99.90;;;;;;4938905;29;20199;-67
2021/07/05 05:40:42;;;;;;;1.53;1.13;;;20.30;99.90;;;;;;4938859;29;20557;-67
2021/07/05 05:43:08;;;;;;;2.53;1.70;;;20.20;99.90;;;;;;4938292;29;20175;-67
2021/07/05 05:45:37;;;;;;;1.33;1.20;;;20.30;99.90;;;;;;4938805;29;20340;-67
2021/07/05 05:48:04;;;;;;;1.97;1.50;;;20.30;99.90;;;;;;4938526;29;20423;-66
2021/07/05 05:50:30;;;;;;;1.50;1.40;;;20.40;99.90;;;;;;4938596;29;20945;-66
2021/07/05 05:52:55;;;;;;;1.40;1.20;;;20.40;99.90;;;;;;4938437;29;20410;-66
2021/07/05 05:55:21;;;;;;;2.70;1.33;;;20.30;99.90;;;;;;4938739;29;20584;-66
2021/07/05 05:57:47;;;;;;;2.17;1.30;;;20.20;99.90;;;;;;4938330;29;20570;-66
2021/07/05 06:00:20;;;;;;;1.40;1.10;;;20.10;99.90;;;;;;4938475;29;20186;-67
2021/07/05 06:02:47;;;;;;;3.77;2.17;;;20.20;99.90;;;;;;4938569;29;20170;-67
2021/07/05 06:05:13;;;;;;;1.30;1.20;;;20.10;99.90;;;;;;4938561;29;20439;-67
2021/07/05 06:07:39;;;;;;;4.00;1.20;;;20.00;99.90;;;;;;4938126;29;20422;-67
2021/07/05 06:10:06;;;;;;;1.20;1.10;;;20.00;99.90;;;;;;4938275;29;20414;-67
2021/07/05 06:12:32;;;;;;;2.03;1.20;;;20.20;99.90;;;;;;4938161;29;20763;-68
2021/07/05 06:14:58;;;;;;;2.20;1.90;;;20.20;99.90;;;;;;4954388;29;20464;-67
2021/07/05 06:17:23;;;;;;;1.90;1.40;;;20.00;99.90;;;;;;4955387;29;20196;-67
2021/07/05 06:19:49;;;;;;;2.20;1.30;;;20.00;99.90;;;;;;4957298;29;20170;-67
2021/07/05 06:22:25;;;;;;;1.60;1.50;;;19.90;99.90;;;;;;4957839;28;20205;-66
2021/07/05 06:24:51;;;;;;;1.80;1.60;;;19.90;99.90;;;;;;4957511;29;20158;-67
2021/07/05 06:27:16;;;;;;;2.80;1.37;;;20.00;99.90;;;;;;4957147;29;20866;-67
2021/07/05 06:29:42;;;;;;;3.20;1.43;;;20.00;99.90;;;;;;4937949;29;20179;-66
2021/07/05 06:32:09;;;;;;;1.67;1.50;;;19.90;99.90;;;;;;4936989;29;20683;-67
2021/07/05 06:34:34;;;;;;;1.70;1.50;;;19.90;99.90;;;;;;4937977;29;20407;-67
2021/07/05 06:37:00;;;;;;;3.70;1.80;;;19.70;99.90;;;;;;4937924;29;20497;-67
2021/07/05 06:39:26;;;;;;;3.37;1.80;;;19.80;99.90;;;;;;4937999;29;20171;-66
2021/07/05 06:41:51;;;;;;;1.80;1.70;;;19.80;99.90;;;;;;4938165;29;20282;-66
2021/07/05 06:44:18;;;;;;;1.90;1.70;;;20.10;99.90;;;;;;4937717;29;20175;-66
2021/07/05 06:46:44;;;;;;;1.60;1.47;;;20.30;99.90;;;;;;4941182;29;20666;-67
2021/07/05 06:49:16;;;;;;;1.77;1.53;;;20.30;99.90;;;;;;4956728;29;20406;-66
2021/07/05 06:51:42;;;;;;;1.90;1.70;;;20.30;99.90;;;;;;4956970;28;20212;-67
2021/07/05 06:54:07;;;;;;;2.47;1.10;;;20.30;99.90;;;;;;4956859;29;20417;-66
2021/07/05 06:56:33;;;;;;;2.50;1.37;;;20.40;99.90;;;;;;4955379;29;20178;-66
2021/07/05 06:58:59;;;;;;;1.20;1.10;;;20.50;99.90;;;;;;4957027;29;20232;-66
2021/07/05 07:01:24;;;;;;;2.17;1.50;;;20.40;99.90;;;;;;4956580;28;20194;-66
2021/07/05 07:03:50;;;;;;;1.57;1.47;;;20.30;99.90;;;;;;4956376;29;20174;-67
2021/07/05 07:06:16;;;;;;;2.33;1.83;;;20.60;99.90;;;;;;4956490;29;20321;-66
2021/07/05 07:08:41;;;;;;;4.20;1.97;;;20.70;99.90;;;;;;4955379;29;20178;-67
2021/07/05 07:11:07;;;;;;;1.90;1.47;;;20.50;99.90;;;;;;4978208;23;20240;-62
2021/07/05 07:13:33;;;;;;;3.27;2.03;;;20.60;99.90;;;;;;4929231;29;20187;-62
2021/07/05 07:16:01;;;;;;;1.97;1.40;;;20.70;99.90;;;;;;4918066;29;20474;-62
2021/07/05 07:20:55;;;;;;;2.23;1.10;;;20.60;99.90;;;;;;4918148;29;20502;-62
2021/07/05 07:23:21;;;;;;;1.37;1.20;;;20.60;99.90;;;;;;4918541;29;21036;-60
2021/07/05 07:25:47;;;;;;;1.30;1.00;;;20.70;99.90;;;;;;4917605;29;20206;-63
2021/07/05 07:28:13;;;;;;;2.93;1.33;;;20.70;99.90;;;;;;4917612;29;20171;-67
2021/07/05 07:30:38;;;;;;;2.90;1.40;;;20.40;99.90;;;;;;4917506;29;20412;-62
2021/07/05 07:33:04;;;;;;;2.60;1.33;;;20.70;99.90;;;;;;4917692;29;20419;-63
2021/07/05 07:35:30;;;;;;;3.63;1.80;;;20.80;99.90;;;;;;4917947;29;20586;-63
2021/07/05 07:37:55;;;;;;;2.20;1.57;;;20.90;99.90;;;;;;4918916;29;20237;-62
2021/07/05 07:40:24;;;;;;;2.70;1.40;;;21.00;99.90;;;;;;4944693;29;20174;-63
2021/07/05 07:42:50;;;;;;;2.60;1.70;;;20.90;99.90;;;;;;4954011;28;20663;-61
2021/07/05 07:45:17;;;;;;;2.00;1.80;;;21.20;99.90;;;;;;4955577;29;20402;-63
2021/07/05 07:47:44;;;;;;;1.90;1.20;;;21.40;99.90;;;;;;4955848;29;20402;-62
2021/07/05 07:50:11;;;;;;;2.63;1.80;;;21.00;99.90;;;;;;4955722;29;20902;-63
2021/07/05 07:52:38;;;;;;;1.90;1.30;;;21.00;99.90;;;;;;4955264;28;20455;-61
2021/07/05 07:55:09;;;;;;;1.87;1.37;;;21.00;99.90;;;;;;4955665;29;20787;-62
2021/07/05 07:57:36;;;;;;;1.23;1.10;;;21.40;99.90;;;;;;4955567;29;20435;-61
2021/07/05 08:00:07;;;;;;;1.63;1.27;;;21.60;99.90;;;;;;4956792;29;20427;-61
2021/07/05 08:02:33;;;;;;;4.93;1.60;;;21.70;99.90;;;;;;4955916;28;20413;-62
2021/07/05 08:04:58;;;;;;;2.80;1.70;;;21.70;99.90;;;;;;4956428;29;20921;-62
2021/07/05 08:07:24;;;;;;;1.60;1.30;;;21.70;99.90;;;;;;4957222;29;20170;-61
2021/07/05 08:09:49;;;;;;;1.97;1.60;;;21.20;99.90;;;;;;4956966;29;20651;-63
2021/07/05 08:12:15;;;;;;;1.83;1.30;;;21.30;99.90;;;;;;4954966;28;20224;-63
2021/07/05 08:14:41;;;;;;;2.40;1.30;;;21.40;99.90;;;;;;4955580;29;20601;-63
2021/07/05 08:17:06;;;;;;;2.57;2.00;;;21.40;99.90;;;;;;4955468;29;20185;-62
2021/07/05 08:19:32;;;;;;;1.87;1.57;;;21.50;99.90;;;;;;4955705;29;20169;-62
2021/07/05 08:21:58;;;;;;;3.00;1.50;;;21.50;99.90;;;;;;4955551;28;20190;-62
2021/07/05 08:24:23;;;;;;;1.70;1.30;;;21.50;99.90;;;;;;4955073;29;20170;-63
2021/07/05 08:26:49;;;;;;;1.70;1.40;;;21.40;99.90;;;;;;4955341;29;20690;-63
2021/07/05 08:29:15;;;;;;;1.80;1.70;;;21.40;99.90;;;;;;4955107;29;20181;-63
2021/07/05 08:31:40;;;;;;;2.50;1.40;;;21.30;99.90;;;;;;4955186;28;20193;-63
2021/07/05 08:34:06;;;;;;;2.17;1.10;;;21.40;99.90;;;;;;4952560;29;20177;-62
2021/07/05 08:36:32;;;;;;;8.80;1.60;;;21.40;99.90;;;;;;4936046;29;20178;-63
2021/07/05 08:38:57;;;;;;;1.50;1.40;;;21.40;99.90;;;;;;4936199;29;20190;-63
2021/07/05 08:41:23;;;;;;;3.47;1.20;;;21.50;99.90;;;;;;4953464;28;20496;-63
2021/07/05 08:43:51;;;;;;;1.60;1.30;;;21.60;99.90;;;;;;4955027;29;20169;-63
2021/07/05 08:46:21;;;;;;;3.33;1.50;;;21.60;99.90;;;;;;4955444;29;20412;-62
2021/07/05 08:48:47;;;;;;;1.83;1.50;;;21.60;99.90;;;;;;4955202;29;20848;-63
2021/07/05 08:51:16;;;;;;;2.20;1.30;;;21.80;99.90;;;;;;4955300;28;20426;-63
2021/07/05 08:53:42;;;;;;;2.77;1.83;;;21.80;99.90;;;;;;4956552;28;20413;-62
2021/07/05 08:56:09;;;;;;;5.67;1.50;;;21.90;99.90;;;;;;4958894;29;20488;-63
2021/07/05 08:58:35;;;;;;;2.10;1.33;;;21.70;99.90;;;;;;4958644;29;20437;-62
2021/07/05 09:01:01;;;;;;;2.77;1.47;;;21.40;99.90;;;;;;4958728;28;20429;-63
2021/07/05 09:03:30;;;;;;;1.80;1.37;;;21.50;99.90;;;;;;4958865;29;20420;-63
2021/07/05 09:06:15;;;;;;;2.50;1.20;;;21.40;99.90;;;;;;4958627;29;20412;-63
2021/07/05 09:09:05;;;;;;;1.97;1.73;;;21.30;99.90;;;;;;4958683;29;20416;-63
2021/07/05 09:11:47;;;;;;;1.77;1.53;;;21.60;99.90;;;;;;4947666;28;20481;-63
2021/07/05 09:14:16;;;;;;;2.30;1.27;;;21.70;99.90;;;;;;4958530;29;20429;-63
2021/07/05 09:16:42;;;;;;;1.63;1.30;;;21.70;99.90;;;;;;4958579;29;20405;-63
2021/07/05 09:19:25;;;;;;;1.60;1.50;;;21.60;99.90;;;;;;4958432;29;20531;-63
2021/07/05 09:21:52;;;;;;;2.10;1.40;;;21.70;99.90;;;;;;4958288;28;20452;-63
2021/07/05 09:24:43;;;;;;;1.23;1.13;;;21.80;99.90;;;;;;4958469;29;20406;-63
2021/07/05 09:27:34;;;;;;;2.63;1.53;;;22.00;99.90;;;;;;4947151;29;20825;-63
2021/07/05 09:30:09;;;;;;;2.50;1.40;;;21.60;99.90;;;;;;4939357;29;20474;-63
2021/07/05 09:32:35;;;;;;;2.30;1.40;;;21.40;99.90;;;;;;4938863;29;20857;-62
2021/07/05 09:35:14;;;;;;;1.90;1.30;;;21.60;99.90;;;;;;4939045;29;20434;-63
2021/07/05 09:37:52;;;;;;;4.47;1.20;;;21.60;99.90;;;;;;4939042;29;20190;-64
2021/07/05 09:40:18;;;;;;;1.73;1.50;;;21.50;99.90;;;;;;4938910;29;20509;-63
2021/07/05 09:42:49;;;;;;;2.13;1.40;;;21.30;99.90;;;;;;4938764;29;20469;-63
2021/07/05 09:45:23;;;;;;;2.07;1.37;;;21.20;99.90;;;;;;4939158;29;20640;-63
2021/07/05 09:48:16;;;;;;;1.13;0.90;;;21.30;99.90;;;;;;4939055;29;20460;-62
2021/07/05 09:50:42;;;;;;;1.50;0.90;;;20.90;99.90;;;;;;4939043;29;20398;-63
2021/07/05 09:53:29;;;;;;;1.10;1.00;;;20.90;99.90;;;;;;4937500;29;20424;-63
2021/07/05 09:56:28;;;;;;;1.53;0.90;;;21.10;99.90;;;;;;4938650;29;20429;-63
2021/07/05 09:58:56;;;;;;;2.40;1.13;;;21.40;99.90;;;;;;4938278;29;20446;-63
2021/07/05 10:01:38;;;;;;;2.60;1.27;;;21.20;99.90;;;;;;4938571;29;20450;-63
2021/07/05 10:04:13;;;;;;;1.40;0.90;;;21.00;99.90;;;;;;4937520;29;20430;-64
2021/07/05 10:06:47;;;;;;;1.90;1.10;;;20.90;99.90;;;;;;4930228;29;20399;-63
2021/07/05 10:09:17;;;;;;;1.60;0.83;;;20.90;99.90;;;;;;4920581;29;20403;-63
2021/07/05 10:11:43;;;;;;;4.60;1.10;;;20.70;99.90;;;;;;4957505;28;20877;-63
2021/07/05 10:14:21;;;;;;;1.00;0.87;;;20.80;99.90;;;;;;4955673;29;20433;-63
2021/07/05 10:16:48;;;;;;;1.47;0.97;;;20.80;99.90;;;;;;4956585;29;20518;-63
2021/07/05 10:19:16;;;;;;;1.53;0.80;;;20.70;99.90;;;;;;4957609;29;20808;-63
2021/07/05 10:21:43;;;;;;;0.90;0.90;;;20.70;99.90;;;;;;4958166;28;20512;-63
2021/07/05 10:24:09;;;;;;;1.97;0.90;;;20.60;99.90;;;;;;4957385;29;20405;-63
2021/07/05 10:26:36;;;;;;;1.73;1.23;;;20.80;99.90;;;;;;4955973;29;20928;-63
2021/07/05 10:29:04;;;;;;;1.90;0.97;;;20.80;99.90;;;;;;4943131;29;20175;-63
2021/07/05 10:31:31;;;;;;;1.00;0.90;;;20.90;99.90;;;;;;4938168;29;20426;-62
2021/07/05 10:34:01;;;;;;;1.67;1.33;;;21.00;99.90;;;;;;4938341;29;20434;-63
2021/07/05 10:36:31;;;;;;;1.23;0.80;;;21.10;99.90;;;;;;4938187;29;20398;-63
2021/07/05 10:39:01;;;;;;;1.57;0.97;;;21.20;99.90;;;;;;4937613;29;20434;-63
2021/07/05 10:41:39;;;;;;;2.40;1.00;;;21.20;99.90;;;;;;4918438;29;20458;-63
2021/07/05 10:44:06;;;;;;;1.00;0.90;;;21.30;99.90;;;;;;4918882;29;20912;-63
2021/07/05 10:46:41;;;;;;;2.27;0.80;;;21.30;99.90;;;;;;4919119;29;20407;-63
2021/07/05 10:49:09;;;;;;;1.03;0.80;;;21.40;99.90;;;;;;4919059;29;20486;-64
2021/07/05 10:51:45;;;;;;;3.50;1.00;;;21.50;99.90;;;;;;4918878;29;20567;-62
2021/07/05 10:54:11;;;;;;;0.83;0.77;;;21.30;99.90;;;;;;4918220;29;20393;-63
2021/07/05 10:56:42;;;;;;;0.73;0.70;;;21.30;99.90;;;;;;4944339;29;20421;-64
2021/07/05 10:59:10;;;;;;;3.23;0.90;;;21.20;99.90;;;;;;4956670;29;20461;-61
2021/07/05 11:01:38;;;;;;;2.60;0.77;;;21.40;99.90;;;;;;4956557;28;20418;-63
2021/07/05 11:04:31;;;;;;;3.07;0.90;;;21.50;99.90;;;;;;4955586;29;20792;-63
2021/07/05 11:07:15;;;;;;;0.83;0.73;;;21.60;99.90;;;;;;4956501;28;20557;-63
2021/07/05 11:09:55;;;;;;;1.00;0.80;;;21.50;99.90;;;;;;4956398;29;20787;-63
2021/07/05 11:12:32;;;;;;;1.07;0.83;;;21.80;99.90;;;;;;4956599;28;20881;-63
2021/07/05 11:14:58;;;;;;;1.60;0.93;;;22.00;99.90;;;;;;4955608;29;20425;-63
2021/07/05 11:17:26;;;;;;;1.53;0.97;;;22.10;99.90;;;;;;4956900;28;20600;-62
2021/07/05 11:20:10;;;;;;;2.10;0.97;;;22.20;99.90;;;;;;4958676;29;20637;-63
2021/07/05 11:22:38;;;;;;;1.00;0.90;;;22.10;99.90;;;;;;4958535;28;20438;-62
2021/07/05 11:25:19;;;;;;;0.90;0.80;;;22.50;99.90;;;;;;4961282;29;20417;-62
2021/07/05 11:27:58;;;;;;;2.73;1.37;;;22.30;99.90;;;;;;4958884;29;20436;-63
2021/07/05 11:30:41;;;;;;;1.43;1.10;;;22.30;99.90;;;;;;4956379;29;20409;-63
2021/07/05 11:33:06;;;;;;;1.00;0.80;;;22.40;99.90;;;;;;4956411;29;20930;-63
2021/07/05 11:35:53;;;;;;;3.00;1.30;;;22.00;99.90;;;;;;4956785;29;20405;-63
2021/07/05 11:38:31;;;;;;;2.30;1.70;;;21.80;99.90;;;;;;4956543;28;20194;-63
2021/07/05 11:41:24;;;;;;;1.20;1.10;;;21.50;99.90;;;;;;4956147;28;20486;-64
2021/07/05 11:43:55;;;;;;;1.30;1.20;;;21.60;99.90;;;;;;4956745;29;20393;-63
2021/07/05 11:46:47;;;;;;;1.43;1.30;;;21.50;99.90;;;;;;4955983;29;20393;-64
2021/07/05 11:49:22;;;;;;;1.37;1.27;;;21.60;99.90;;;;;;4955951;28;20397;-63
2021/07/05 11:51:54;;;;;;;2.47;1.53;;;21.70;99.90;;;;;;4956000;28;20417;-64
2021/07/05 11:54:27;;;;;;;1.97;1.30;;;21.80;99.90;;;;;;4955961;29;20468;-63
2021/07/05 11:56:55;;;;;;;1.57;1.10;;;22.00;99.90;;;;;;4955823;29;20386;-63
2021/07/05 11:59:30;;;;;;;1.10;1.00;;;22.20;99.90;;;;;;4955861;29;20480;-63
2021/07/05 12:02:02;;;;;;;1.43;1.00;;;22.60;99.90;;;;;;4955828;28;20484;-64
2021/07/05 12:04:31;;;;;;;1.57;1.10;;;22.80;99.90;;;;;;4955517;29;20417;-63
2021/07/05 12:06:57;;;;;;;2.50;1.50;;;23.00;99.90;;;;;;4955252;28;20488;-63
2021/07/05 12:09:28;;;;;;;2.20;1.13;;;23.00;99.90;;;;;;4955442;29;20509;-63
2021/07/05 12:11:55;;;;;;;2.40;1.90;;;23.20;99.90;;;;;;4955492;28;20464;-63
2021/07/05 12:14:23;;;;;;;1.50;1.00;;;23.40;99.90;;;;;;4953883;29;20425;-63
2021/07/05 12:16:57;;;;;;;1.93;1.30;;;23.50;99.90;;;;;;4955963;29;20464;-63
2021/07/05 12:19:24;;;;;;;1.97;1.10;;;23.20;99.90;;;;;;4956342;29;20477;-63
2021/07/05 12:21:56;;;;;;;1.63;1.00;;;23.00;99.90;;;;;;4955424;28;20428;-63
2021/07/05 12:24:27;;;;;;;1.40;1.20;;;22.90;99.90;;;;;;4939849;29;20410;-62
2021/07/05 12:27:00;;;;;;;1.73;1.20;;;22.60;99.90;;;;;;4936240;29;20494;-62
2021/07/05 12:32:24;;;;;;;1.43;1.20;;;22.80;99.90;;;;;;4932395;29;20571;-61
2021/07/05 12:35:07;;;;;;;1.83;1.03;;;22.60;99.90;;;;;;4936200;29;20526;-62
2021/07/05 12:37:47;;;;;;;1.97;1.27;;;22.30;99.90;;;;;;4935634;29;20434;-63
2021/07/05 12:40:30;;;;;;;1.20;1.10;;;22.20;99.90;;;;;;4935719;29;20927;-62
2021/07/05 12:43:03;;;;;;;1.30;1.00;;;22.20;99.90;;;;;;4936023;29;20502;-63
2021/07/05 12:45:44;;;;;;;1.30;1.10;;;22.60;99.90;;;;;;4948100;29;20492;-63
2021/07/05 12:48:13;;;;;;;1.10;1.00;;;23.40;99.90;;;;;;4954043;29;20453;-63
2021/07/05 12:50:57;;;;;;;3.03;1.60;;;23.70;99.90;;;;;;4955188;29;20771;-63
2021/07/05 12:53:25;;;;;;;2.13;1.30;;;23.80;99.90;;;;;;4955192;28;20397;-62
2021/07/05 12:56:06;;;;;;;1.93;1.10;;;24.00;99.90;;;;;;4955004;29;20412;-62
2021/07/05 12:58:48;;;;;;;2.23;1.20;;;24.70;99.90;;;;;;4935549;29;20453;-62
2021/07/05 13:01:34;;;;;;;1.50;1.10;;;25.30;99.90;;;;;;4917439;29;20967;-62